createdAt,value
2023-05-15T00:01:45.756Z,100614.28
2023-05-15T00:04:17.669Z,100608.13
2023-05-15T00:06:49.216Z,100607.31
2023-05-15T00:09:21.105Z,100603.59
2023-05-15T00:11:52.761Z,100595.56
2023-05-15T00:14:24.233Z,100588.00
2023-05-15T00:16:56.069Z,100590.94
2023-05-15T00:19:27.582Z,100577.13
2023-05-15T00:21:59.051Z,100585.44
2023-05-15T00:24:30.514Z,100573.13
2023-05-15T00:27:02.259Z,100572.53
2023-05-15T00:29:33.724Z,100577.88
2023-05-15T00:32:05.506Z,100582.78
2023-05-15T00:34:36.988Z,100573.16
2023-05-15T00:37:08.891Z,100571.53
2023-05-15T00:39:40.370Z,100565.50
2023-05-15T00:42:11.821Z,100565.72
2023-05-15T00:44:43.286Z,100561.69
2023-05-15T00:47:14.830Z,100562.84
2023-05-15T00:49:46.653Z,100557.00
2023-05-15T00:52:18.113Z,100559.91
2023-05-15T00:54:49.896Z,100558.50
2023-05-15T00:57:21.356Z,100551.53
2023-05-15T00:59:53.387Z,100559.56
2023-05-15T01:02:24.968Z,100565.34
2023-05-15T01:04:56.873Z,100556.06
2023-05-15T01:07:28.812Z,100547.53
2023-05-15T01:10:00.626Z,100546.25
2023-05-15T01:12:32.356Z,100544.84
2023-05-15T01:15:03.836Z,100534.97
2023-05-15T01:17:35.323Z,100542.53
2023-05-15T01:20:06.878Z,100533.72
2023-05-15T01:22:38.446Z,100534.66
2023-05-15T01:25:09.892Z,100524.56
2023-05-15T01:27:41.339Z,100528.25
2023-05-15T01:30:12.861Z,100532.56
2023-05-15T01:32:44.653Z,100520.25
2023-05-15T01:35:16.130Z,100527.69
2023-05-15T01:37:47.988Z,100528.13
2023-05-15T01:40:19.821Z,100530.44
2023-05-15T01:42:51.303Z,100530.69
2023-05-15T01:45:23.076Z,100524.63
2023-05-15T01:47:54.672Z,100532.03
2023-05-15T01:50:26.536Z,100526.56
2023-05-15T01:52:57.989Z,100526.56
2023-05-15T01:55:29.763Z,100514.50
2023-05-15T01:58:01.223Z,100512.63
2023-05-15T02:00:33.174Z,100517.16
2023-05-15T02:03:04.778Z,100505.09
2023-05-15T02:05:36.435Z,100503.94
2023-05-15T02:08:08.199Z,100506.38
2023-05-15T02:10:39.681Z,100502.53
2023-05-15T02:13:11.501Z,100500.31
2023-05-15T02:15:42.956Z,100496.84
2023-05-15T02:18:14.750Z,100493.13
2023-05-15T02:20:46.176Z,100478.63
2023-05-15T02:23:17.830Z,100486.84
2023-05-15T02:25:49.308Z,100486.03
2023-05-15T02:28:20.963Z,100479.66
2023-05-15T02:30:52.432Z,100475.38
2023-05-15T02:33:24.313Z,100479.66
2023-05-15T02:35:55.764Z,100475.00
2023-05-15T02:38:27.540Z,100473.84
2023-05-15T02:40:59.017Z,100471.00
2023-05-15T02:43:30.688Z,100471.00
2023-05-15T02:46:02.359Z,100471.78
2023-05-15T02:48:33.876Z,100478.03
2023-05-15T02:51:05.677Z,100467.22
2023-05-15T02:53:37.126Z,100463.53
2023-05-15T02:56:08.882Z,100460.06
2023-05-15T02:58:40.329Z,100463.41
2023-05-15T03:01:12.150Z,100462.94
2023-05-15T03:03:43.661Z,100467.91
2023-05-15T03:06:15.292Z,100469.47
2023-05-15T03:08:46.925Z,100465.41
2023-05-15T03:11:18.591Z,100262.50
2023-05-15T03:13:50.404Z,100456.53
2023-05-15T03:16:21.901Z,100456.69
2023-05-15T03:18:53.689Z,100451.72
2023-05-15T03:21:25.171Z,100443.03
2023-05-15T03:23:56.969Z,100444.06
2023-05-15T03:26:28.425Z,100444.84
2023-05-15T03:29:00.213Z,100441.38
2023-05-15T03:31:31.684Z,100438.03
2023-05-15T03:34:03.465Z,100438.63
2023-05-15T03:36:34.939Z,100439.78
2023-05-15T03:39:06.715Z,100434.47
2023-05-15T03:41:38.203Z,100430.63
2023-05-15T03:44:09.656Z,100433.88
2023-05-15T03:46:41.517Z,100432.03
2023-05-15T03:49:13.003Z,100426.47
2023-05-15T03:51:44.753Z,100430.06
2023-05-15T03:54:16.259Z,100425.72
2023-05-15T03:56:48.031Z,100432.22
2023-05-15T03:59:19.540Z,100429.91
2023-05-15T04:02:03.665Z,100432.00
2023-05-15T04:04:36.628Z,100427.47
2023-05-15T04:07:08.390Z,100424.59
2023-05-15T04:09:39.843Z,100424.50
2023-05-15T04:12:11.567Z,100426.13
2023-05-15T04:14:43.014Z,100427.09
2023-05-15T04:17:14.918Z,100427.81
2023-05-15T04:19:46.351Z,100420.78
2023-05-15T04:22:18.184Z,100420.34
2023-05-15T04:24:49.655Z,100425.22
2023-05-15T04:27:21.439Z,100430.00
2023-05-15T04:29:52.878Z,100426.13
2023-05-15T04:32:24.616Z,100423.47
2023-05-15T04:34:56.100Z,100425.72
2023-05-15T04:37:28.060Z,100413.00
2023-05-15T04:39:59.500Z,100416.78
2023-05-15T04:42:31.404Z,100415.25
2023-05-15T04:45:02.870Z,100418.44
2023-05-15T04:47:34.502Z,100419.25
2023-05-15T04:50:05.998Z,100424.38
2023-05-15T04:52:37.727Z,100424.72
2023-05-15T04:55:09.181Z,100419.75
2023-05-15T04:57:40.926Z,100426.59
2023-05-15T05:00:13.453Z,100419.97
2023-05-15T05:02:45.209Z,100417.31
2023-05-15T05:05:16.716Z,100410.78
2023-05-15T05:07:48.547Z,100422.06
2023-05-15T05:10:20.026Z,100414.97
2023-05-15T05:12:51.813Z,100415.28
2023-05-15T05:15:23.355Z,100410.13
2023-05-15T05:17:55.592Z,100408.09
2023-05-15T05:20:27.110Z,100403.13
2023-05-15T05:22:58.916Z,100392.28
2023-05-15T05:25:30.393Z,100391.88
2023-05-15T05:28:02.065Z,100390.84
2023-05-15T05:30:33.545Z,100380.75
2023-05-15T05:33:05.556Z,100382.28
2023-05-15T05:35:37.091Z,100387.50
2023-05-15T05:38:08.950Z,100379.50
2023-05-15T05:40:40.410Z,100384.59
2023-05-15T05:43:12.188Z,100377.47
2023-05-15T05:45:43.633Z,100389.19
2023-05-15T05:48:15.390Z,100375.16
2023-05-15T05:50:46.835Z,100376.31
2023-05-15T05:53:18.629Z,100369.38
2023-05-15T05:55:50.105Z,100373.97
2023-05-15T05:58:25.855Z,100365.34
2023-05-15T06:00:57.817Z,100372.00
2023-05-15T06:03:29.592Z,100360.41
2023-05-15T06:06:01.122Z,100362.75
2023-05-15T06:08:32.837Z,100361.13
2023-05-15T06:11:04.281Z,100359.53
2023-05-15T06:13:35.756Z,100358.81
2023-05-15T06:16:07.206Z,100357.75
2023-05-15T06:18:39.224Z,100358.34
2023-05-15T06:21:10.712Z,100355.94
2023-05-15T06:23:42.603Z,100349.75
2023-05-15T06:26:14.087Z,100344.91
2023-05-15T06:28:45.857Z,100345.16
2023-05-15T06:31:17.411Z,100350.53
2023-05-15T06:33:49.415Z,100344.66
2023-05-15T06:36:20.866Z,100346.03
2023-05-15T06:38:52.648Z,100346.81
2023-05-15T06:41:24.129Z,100340.63
2023-05-15T06:43:55.925Z,100341.63
2023-05-15T06:46:27.883Z,100335.66
2023-05-15T06:48:59.739Z,100337.22
2023-05-15T06:51:31.206Z,100328.50
2023-05-15T06:54:03.006Z,100322.44
2023-05-15T06:56:34.519Z,100325.03
2023-05-15T06:59:06.152Z,100317.84
2023-05-15T07:01:37.681Z,100319.31
2023-05-15T07:04:09.556Z,100317.03
2023-05-15T07:06:41.008Z,100314.03
2023-05-15T07:09:12.743Z,100319.50
2023-05-15T07:11:44.218Z,100318.16
2023-05-15T07:14:19.187Z,100318.94
2023-05-15T07:16:51.048Z,100318.28
2023-05-15T07:19:22.903Z,100317.72
2023-05-15T07:21:54.837Z,100312.78
2023-05-15T07:24:26.289Z,100313.69
2023-05-15T07:26:59.261Z,100314.31
2023-05-15T07:29:30.917Z,100299.91
2023-05-15T07:32:02.825Z,100299.38
2023-05-15T07:34:34.339Z,100301.97
2023-05-15T07:37:06.261Z,100294.19
2023-05-15T07:39:37.872Z,100297.31
2023-05-15T07:42:09.900Z,100289.41
2023-05-15T07:44:43.992Z,100289.81
2023-05-15T07:47:16.858Z,100284.78
2023-05-15T07:49:48.628Z,100293.78
2023-05-15T07:52:20.132Z,100296.44
2023-05-15T07:54:51.606Z,100291.66
2023-05-15T07:57:23.047Z,100294.59
2023-05-15T07:59:54.964Z,100286.78
2023-05-15T08:02:26.485Z,100287.19
2023-05-15T08:04:58.361Z,100275.41
2023-05-15T08:07:29.822Z,100274.34
2023-05-15T08:10:01.649Z,100272.13
2023-05-15T08:12:33.142Z,100275.94
2023-05-15T08:15:04.996Z,100266.41
2023-05-15T08:17:36.480Z,100269.09
2023-05-15T08:20:07.959Z,100268.69
2023-05-15T08:22:39.427Z,100262.25
2023-05-15T08:25:10.878Z,100263.34
2023-05-15T08:27:42.757Z,100265.97
2023-05-15T08:30:14.212Z,100261.66
2023-05-15T08:32:45.805Z,100257.59
2023-05-15T08:35:17.323Z,100258.69
2023-05-15T08:37:49.131Z,100256.69
2023-05-15T08:40:25.621Z,100249.66
2023-05-15T08:43:06.517Z,100249.91
2023-05-15T08:45:38.068Z,100242.56
2023-05-15T08:48:09.600Z,100233.25
2023-05-15T08:50:41.096Z,100236.75
2023-05-15T08:53:12.636Z,100235.41
2023-05-15T08:55:44.437Z,100228.88
2023-05-15T08:58:15.918Z,100234.72
2023-05-15T09:00:47.415Z,100232.41
2023-05-15T09:03:18.969Z,100230.31
2023-05-15T09:05:50.726Z,100240.81
2023-05-15T09:08:23.338Z,100233.13
2023-05-15T09:10:55.368Z,100222.59
2023-05-15T09:13:27.220Z,100224.75
2023-05-15T09:15:58.684Z,100217.16
2023-05-15T09:18:30.362Z,100213.34
2023-05-15T09:21:01.875Z,100216.75
2023-05-15T09:23:33.456Z,100217.28
2023-05-15T09:26:05.008Z,100217.66
2023-05-15T09:28:36.505Z,100214.34
2023-05-15T09:31:08.025Z,100202.34
2023-05-15T09:33:39.492Z,100214.19
2023-05-15T09:36:10.954Z,100211.75
2023-05-15T09:38:42.763Z,100209.47
2023-05-15T09:41:14.742Z,100215.22
2023-05-15T09:43:47.976Z,100208.13
2023-05-15T09:46:19.927Z,100209.81
2023-05-15T09:48:51.424Z,100208.59
2023-05-15T09:51:23.099Z,100207.00
2023-05-15T09:53:54.579Z,100236.50
2023-05-15T09:56:26.214Z,100061.59
2023-05-15T09:58:57.838Z,100199.00
2023-05-15T10:01:29.781Z,100194.25
2023-05-15T10:04:01.266Z,100196.84
2023-05-15T10:06:33.086Z,100193.81
2023-05-15T10:09:04.853Z,100186.81
2023-05-15T10:11:36.322Z,100186.09
2023-05-15T10:14:08.080Z,100189.28
2023-05-15T10:16:39.641Z,100188.88
2023-05-15T10:19:11.596Z,100177.84
2023-05-15T10:21:43.075Z,100188.38
2023-05-15T10:24:14.847Z,100180.63
2023-05-15T10:26:46.305Z,100179.22
2023-05-15T10:29:17.770Z,100178.56
2023-05-15T10:31:49.321Z,100172.28
2023-05-15T10:34:20.822Z,100176.13
2023-05-15T10:36:52.288Z,100165.69
2023-05-15T10:39:24.048Z,100175.91
2023-05-15T10:41:55.518Z,100177.97
2023-05-15T10:44:26.980Z,100171.94
2023-05-15T10:46:58.898Z,100160.84
2023-05-15T10:49:30.450Z,100165.63
2023-05-15T10:52:02.478Z,100158.03
2023-05-15T10:54:33.924Z,100161.06
2023-05-15T10:57:05.813Z,100152.59
2023-05-15T10:59:37.548Z,100146.81
2023-05-15T11:02:09.342Z,100149.69
2023-05-15T11:04:40.879Z,100155.19
2023-05-15T11:07:12.834Z,100144.44
2023-05-15T11:09:44.776Z,100145.22
2023-05-15T11:12:16.265Z,100146.09
2023-05-15T11:14:48.196Z,100141.16
2023-05-15T11:17:19.655Z,100128.47
2023-05-15T11:19:51.632Z,100127.72
2023-05-15T11:22:23.173Z,100132.53
2023-05-15T11:24:54.739Z,100120.59
2023-05-15T11:27:26.178Z,100125.28
2023-05-15T11:29:57.739Z,100112.84
2023-05-15T11:32:29.235Z,100114.41
2023-05-15T11:35:00.785Z,100111.88
2023-05-15T11:37:32.747Z,100113.00
2023-05-15T11:40:04.520Z,100111.16
2023-05-15T11:42:36.003Z,100108.59
2023-05-15T11:45:07.468Z,100105.81
2023-05-15T11:47:39.030Z,100105.63
2023-05-15T11:50:10.501Z,100101.38
2023-05-15T11:52:42.126Z,100102.00
2023-05-15T11:55:13.806Z,100091.75
2023-05-15T11:57:45.254Z,100096.34
2023-05-15T12:00:16.905Z,100094.19
2023-05-15T12:02:48.476Z,100094.34
2023-05-15T12:05:20.332Z,100092.59
2023-05-15T12:07:51.796Z,100090.41
2023-05-15T12:10:23.681Z,100089.97
2023-05-15T12:12:55.212Z,100086.75
2023-05-15T12:15:27.111Z,100080.56
2023-05-15T12:17:58.596Z,100073.16
2023-05-15T12:20:30.404Z,100071.63
2023-05-15T12:23:01.863Z,100068.06
2023-05-15T12:25:33.311Z,100070.03
2023-05-15T12:28:04.773Z,100069.00
2023-05-15T12:30:36.217Z,100067.09
2023-05-15T12:33:08.124Z,100056.91
2023-05-15T12:35:39.614Z,100064.63
2023-05-15T12:38:11.392Z,100059.72
2023-05-15T12:40:42.837Z,100063.91
2023-05-15T12:43:14.654Z,100057.22
2023-05-15T12:45:46.170Z,100065.47
2023-05-15T12:48:17.644Z,100050.00
2023-05-15T12:50:49.112Z,100052.03
2023-05-15T12:53:20.890Z,100052.03
2023-05-15T12:55:52.691Z,100050.53
2023-05-15T12:58:24.165Z,100045.47
2023-05-15T13:00:56.420Z,100044.38
2023-05-15T13:03:28.031Z,100042.72
2023-05-15T13:05:59.977Z,100046.53
2023-05-15T13:08:31.477Z,100038.78
2023-05-15T13:11:03.308Z,100039.97
2023-05-15T13:13:34.790Z,100040.31
2023-05-15T13:16:08.282Z,100033.19
2023-05-15T13:18:42.013Z,100014.66
2023-05-15T13:21:13.904Z,100021.28
2023-05-15T13:23:45.694Z,100010.56
2023-05-15T13:26:17.166Z,100013.66
2023-05-15T13:28:48.959Z,100005.66
2023-05-15T13:31:20.457Z,100003.09
2023-05-15T13:33:51.982Z,100007.16
2023-05-15T13:36:23.451Z,100000.88
2023-05-15T13:38:55.144Z,99998.34
2023-05-15T13:41:26.591Z,99999.16
2023-05-15T13:43:58.370Z,100002.09
2023-05-15T13:46:30.177Z,99992.81
2023-05-15T13:49:01.698Z,100002.06
2023-05-15T13:51:33.714Z,100001.13
2023-05-15T13:54:07.286Z,100004.13
2023-05-15T13:56:38.783Z,100017.34
2023-05-15T13:59:10.265Z,100048.25
2023-05-15T14:01:41.895Z,100051.97
2023-05-15T14:04:13.599Z,100052.28
2023-05-15T14:06:45.172Z,100061.94
2023-05-15T14:09:16.717Z,100060.94
2023-05-15T14:11:48.630Z,100070.75
2023-05-15T14:14:20.353Z,100069.56
2023-05-15T14:16:52.230Z,100075.44
2023-05-15T14:19:24.310Z,100088.53
2023-05-15T14:21:55.838Z,100087.09
2023-05-15T14:24:27.789Z,100083.03
2023-05-15T14:26:59.240Z,100081.81
2023-05-15T14:29:31.000Z,100081.88
2023-05-15T14:32:02.460Z,100090.22
2023-05-15T14:34:34.042Z,100083.69
2023-05-15T14:37:05.527Z,100091.13
2023-05-15T14:39:37.024Z,100084.69
2023-05-15T14:42:08.640Z,100083.47
2023-05-15T14:44:40.107Z,100082.84
2023-05-15T14:47:11.848Z,100085.94
2023-05-15T14:49:43.504Z,100081.97
2023-05-15T14:52:15.150Z,100069.06
2023-05-15T14:54:56.927Z,100079.56
2023-05-15T14:57:38.036Z,100075.81
2023-05-15T15:00:09.621Z,100067.13
2023-05-15T15:02:41.278Z,100070.44
2023-05-15T15:05:12.795Z,100066.44
2023-05-15T15:07:44.789Z,100067.66
2023-05-15T15:10:16.262Z,100079.47
2023-05-15T15:12:47.915Z,99934.91
2023-05-15T15:15:19.552Z,100079.72
2023-05-15T15:17:51.041Z,100066.47
2023-05-15T15:20:22.548Z,100068.19
2023-05-15T15:22:54.024Z,100062.66
2023-05-15T15:25:25.724Z,100068.13
2023-05-15T15:27:57.189Z,100062.28
2023-05-15T15:30:28.954Z,100060.41
2023-05-15T15:33:00.471Z,100055.78
2023-05-15T15:35:32.376Z,100053.59
2023-05-15T15:38:03.854Z,100067.69
2023-05-15T15:40:35.369Z,100064.28
2023-05-15T15:43:06.838Z,100063.06
2023-05-15T15:45:38.408Z,100056.13
2023-05-15T15:48:10.337Z,100010.66
2023-05-15T15:50:41.820Z,100062.34
2023-05-15T15:53:13.270Z,100065.22
2023-05-15T15:55:47.003Z,100064.88
2023-05-15T15:58:18.985Z,100063.41
2023-05-15T16:00:50.477Z,100051.16
2023-05-15T16:03:22.274Z,100054.84
2023-05-15T16:05:53.821Z,100052.59
2023-05-15T16:08:25.661Z,100048.75
2023-05-15T16:10:57.165Z,100056.34
2023-05-15T16:13:29.009Z,100055.22
2023-05-15T16:16:00.496Z,100051.22
2023-05-15T16:18:35.029Z,100058.53
2023-05-15T16:21:06.872Z,100054.84
2023-05-15T16:23:38.322Z,100060.56
2023-05-15T16:26:09.934Z,100068.03
2023-05-15T16:28:41.423Z,100075.44
2023-05-15T16:31:13.244Z,100081.03
2023-05-15T16:33:44.762Z,100082.84
2023-05-15T16:36:16.598Z,100076.84
2023-05-15T16:38:48.047Z,100081.38
2023-05-15T16:41:19.708Z,100088.88
2023-05-15T16:43:51.538Z,100085.00
2023-05-15T16:46:23.405Z,100089.75
2023-05-15T16:48:55.219Z,100090.34
2023-05-15T16:51:26.700Z,100093.09
2023-05-15T16:53:58.634Z,100087.97
2023-05-15T16:56:30.126Z,100095.81
2023-05-15T16:59:01.894Z,100096.69
2023-05-15T17:01:33.433Z,100091.72
2023-05-15T17:04:05.336Z,100088.56
2023-05-15T17:06:36.815Z,100084.13
2023-05-15T17:09:08.605Z,100089.75
2023-05-15T17:11:40.083Z,100085.16
2023-05-15T17:14:11.591Z,100090.50
2023-05-15T17:16:43.488Z,100092.28
2023-05-15T17:19:15.076Z,100090.00
2023-05-15T17:21:46.780Z,100082.31
2023-05-15T17:24:18.240Z,100088.78
2023-05-15T17:26:49.683Z,100079.94
2023-05-15T17:29:21.145Z,100087.09
2023-05-15T17:31:52.732Z,100088.75
2023-05-15T17:34:24.240Z,100090.91
2023-05-15T17:36:55.726Z,100096.91
2023-05-15T17:39:27.189Z,100094.22
2023-05-15T17:41:58.676Z,100103.31
2023-05-15T17:44:30.497Z,100104.13
2023-05-15T17:47:02.069Z,100096.63
2023-05-15T17:49:33.579Z,100093.09
2023-05-15T17:52:05.028Z,100104.97
2023-05-15T17:54:36.517Z,100102.56
2023-05-15T17:57:07.981Z,100099.91
2023-05-15T17:59:39.452Z,100098.03
2023-05-15T18:02:10.941Z,100098.56
2023-05-15T18:04:42.797Z,100092.06
2023-05-15T18:07:14.264Z,100106.38
2023-05-15T18:09:46.020Z,100104.25
2023-05-15T18:12:17.492Z,100118.31
2023-05-15T18:14:49.385Z,100115.34
2023-05-15T18:17:21.398Z,100110.75
2023-05-15T18:19:52.880Z,100111.06
2023-05-15T18:22:24.665Z,100110.06
2023-05-15T18:24:56.125Z,100114.94
2023-05-15T18:27:27.938Z,100112.78
2023-05-15T18:29:59.454Z,100111.47
2023-05-15T18:32:30.971Z,100120.91
2023-05-15T18:35:02.482Z,100122.53
2023-05-15T18:37:33.955Z,100125.53
2023-05-15T18:40:05.428Z,100122.59
2023-05-15T18:42:36.900Z,100123.69
2023-05-15T18:45:08.712Z,100127.72
2023-05-15T18:47:42.336Z,100129.88
2023-05-15T18:50:14.009Z,100128.00
2023-05-15T18:52:45.489Z,100124.25
2023-05-15T18:55:16.984Z,100129.66
2023-05-15T18:57:48.505Z,100132.88
2023-05-15T19:00:33.998Z,100129.13
2023-05-15T19:03:09.913Z,100139.88
2023-05-15T19:05:41.553Z,100145.00
2023-05-15T19:08:13.020Z,100152.00
2023-05-15T19:10:44.461Z,100149.06
2023-05-15T19:13:16.198Z,100151.72
2023-05-15T19:15:47.976Z,100155.75
2023-05-15T19:18:19.820Z,100156.03
2023-05-15T19:20:51.377Z,100146.34
2023-05-15T19:23:22.864Z,100146.34
2023-05-15T19:25:54.307Z,100141.97
2023-05-15T19:28:26.126Z,100141.97
2023-05-15T19:30:57.602Z,100143.06
2023-05-15T19:33:29.417Z,100146.28
2023-05-15T19:36:00.906Z,100156.53
2023-05-15T19:38:32.735Z,100185.50
2023-05-15T19:41:04.770Z,100159.44
2023-05-15T19:43:36.225Z,100164.00
2023-05-15T19:46:07.975Z,100158.91
2023-05-15T19:48:39.456Z,100164.78
2023-05-15T19:51:11.321Z,100166.69
2023-05-15T19:53:42.802Z,100164.25
2023-05-15T19:56:14.300Z,100173.69
2023-05-15T19:58:45.789Z,100177.16
2023-05-15T20:01:17.657Z,100172.59
2023-05-15T20:03:49.292Z,100179.56
2023-05-15T20:06:21.262Z,100179.84
2023-05-15T20:08:52.747Z,100180.38
2023-05-15T20:11:24.529Z,100179.56
2023-05-15T20:13:56.341Z,100184.13
2023-05-15T20:16:27.856Z,100184.38
2023-05-15T20:18:59.671Z,100173.09
2023-05-15T20:21:31.110Z,100184.31
2023-05-15T20:24:02.883Z,100183.78
2023-05-15T20:26:34.322Z,100188.63
2023-05-15T20:29:05.979Z,100183.19
2023-05-15T20:31:37.474Z,100195.81
2023-05-15T20:34:09.285Z,100188.25
2023-05-15T20:36:40.733Z,100187.44
2023-05-15T20:39:12.224Z,100184.16
2023-05-15T20:41:44.120Z,100186.28
2023-05-15T20:44:15.877Z,100191.94
2023-05-15T20:46:47.723Z,100187.63
2023-05-15T20:49:19.157Z,100186.53
2023-05-15T20:51:51.079Z,100186.28
2023-05-15T20:54:22.543Z,100187.31
2023-05-15T20:56:54.312Z,100183.81
2023-05-15T20:59:25.755Z,100189.44
2023-05-15T21:01:57.541Z,100192.38
2023-05-15T21:04:29.001Z,100186.72
2023-05-15T21:07:00.792Z,100183.00
2023-05-15T21:09:32.226Z,100186.19
2023-05-15T21:12:03.923Z,100189.38
2023-05-15T21:14:35.464Z,100175.16
2023-05-15T21:17:06.972Z,100186.13
2023-05-15T21:19:38.471Z,100185.28
2023-05-15T21:22:09.928Z,100179.09
2023-05-15T21:24:41.381Z,100193.59
2023-05-15T21:27:12.826Z,100192.50
2023-05-15T21:29:44.607Z,100200.81
2023-05-15T21:32:16.057Z,100030.38
2023-05-15T21:34:47.904Z,100204.03
2023-05-15T21:37:19.372Z,100197.28
2023-05-15T21:39:51.195Z,100201.03
2023-05-15T21:42:23.039Z,100207.19
2023-05-15T21:44:54.894Z,100217.69
2023-05-15T21:47:26.766Z,100211.81
2023-05-15T21:49:58.243Z,100221.22
2023-05-15T21:52:29.698Z,100223.41
2023-05-15T21:55:01.140Z,100221.53
2023-05-15T21:57:32.749Z,100228.00
2023-05-15T22:00:04.186Z,100220.25
2023-05-15T22:02:35.780Z,100225.91
2023-05-15T22:05:07.332Z,100215.44
2023-05-15T22:07:38.799Z,100228.59
2023-05-15T22:10:10.229Z,100218.09
2023-05-15T22:12:41.692Z,100222.13
2023-05-15T22:15:13.454Z,100212.19
2023-05-15T22:17:45.443Z,100228.56
2023-05-15T22:20:16.931Z,100224.84
2023-05-15T22:22:48.406Z,100225.91
2023-05-15T22:25:19.861Z,100219.19
2023-05-15T22:27:51.325Z,100216.22
2023-05-15T22:30:23.046Z,100219.97
2023-05-15T22:32:54.568Z,100226.97
2023-05-15T22:35:26.180Z,100216.53
2023-05-15T22:37:57.785Z,100216.53
2023-05-15T22:40:29.637Z,100217.88
2023-05-15T22:43:01.346Z,100219.50
2023-05-15T22:45:32.829Z,100227.00
2023-05-15T22:48:04.684Z,100238.78
2023-05-15T22:50:36.209Z,100244.16
2023-05-15T22:53:07.962Z,100247.63
2023-05-15T22:55:39.419Z,100253.00
2023-05-15T22:58:11.264Z,100258.34
2023-05-15T23:00:42.714Z,100252.44
2023-05-15T23:03:14.621Z,100251.03
2023-05-15T23:05:46.134Z,100257.97
2023-05-15T23:08:18.202Z,100258.16
2023-05-15T23:10:49.678Z,100258.91
2023-05-15T23:13:21.514Z,100257.03
2023-05-15T23:15:53.372Z,100257.25
2023-05-15T23:18:24.815Z,100256.16
2023-05-15T23:20:56.567Z,100248.06
2023-05-15T23:23:28.028Z,100253.94
2023-05-15T23:25:59.932Z,100247.97
2023-05-15T23:28:31.379Z,100248.47
2023-05-15T23:31:03.148Z,100248.16
2023-05-15T23:33:34.645Z,100247.56
2023-05-15T23:36:06.260Z,100256.38
2023-05-15T23:38:37.728Z,100256.88
2023-05-15T23:41:09.535Z,100261.13
2023-05-15T23:43:41.000Z,100265.06
2023-05-15T23:46:12.509Z,100273.91
2023-05-15T23:48:44.400Z,100268.47
2023-05-15T23:51:15.840Z,100269.28
2023-05-15T23:53:47.303Z,100277.56
2023-05-15T23:56:18.772Z,100276.97
2023-05-15T23:58:50.504Z,100274.22
